Impacts TAF Board
For situational awareness. Not to be used for flight planning purposes.
IDs:

KTCL - Tuscaloosa Rgnl, AL, US

Issued at 2209 UTC 30 Jun 2022
Updated at 2341 UTC 30 Jun 2022
Potential Impact None Slight Moderate High
Time2253Z 01/00Z 01/01Z 01/02Z 01/03Z 01/04Z 01/05Z 01/06Z 01/07Z 01/08Z 01/09Z 01/10Z 01/11Z 01/12Z>>
Type OBS PRVL PRVL PRVL PRVL PRVL PRVL PRVL PRVL PRVL PRVL PRVL PRVL PRVL
VIS 10 >6 >6 >6 >6 >6 >6 >6 >6 >6 >6 >6 >6 >6
CIG 70 250 250 250 250 250 250 250 250 250 250 250 250 250
Cover BKN BKN BKN BKN BKN BKN BKN BKN BKN BKN BKN BKN BKN BKN
FltCat VFR VFR VFR VFR VFR VFR VFR VFR VFR VFR VFR VFR VFR VFR
WX -- VCSH VCSH VCSH -- -- -- -- -- -- -- -- -- --
WDir 230 140 140 140 VRB VRB VRB VRB VRB VRB VRB VRB VRB VRB
WSpd 3 7 7 7 2 2 2 2 2 2 2 2 2 2
WGst -- -- -- -- -- -- -- -- -- -- -- -- -- --
WSHgt -- -- -- -- -- -- -- -- -- -- -- -- -- --
WSDir -- -- -- -- -- -- -- -- -- -- -- -- -- --
WSSpd -- -- -- -- -- -- -- -- -- -- -- -- -- --
Raw TAF
KTCL 302209Z 3022/0118 14007KT P6SM VCSH SCT040 BKN250
  FM010300 VRB02KT P6SM BKN250
  FM011500 14005KT P6SM FEW035


Raw METAR
KTCL 302253Z 23003KT 10SM SCT050 BKN070 BKN095 28/24 A3008 RMK AO2 LTG DSNT S RAB20E51 SLP182 P0000 T02780239
KTCL 302153Z 14004KT 10SM CLR 29/22 A3008 RMK AO2 SLP182 T02890222
KTCL 302053Z 15008KT 10SM CLR 30/22 A3007 RMK AO2 LTG DSNT SW AND W SLP180 T03000222 56023

METAR Board
Radar Display
Forecast Discussion
For situational awareness. Not to be used for flight planning purposes.